sensor_id;sensor_type;location;lat;lon;timestamp;temperature;humidity
10042;DHT22;5061;49.068;12.058;2023-03-17T00:00:08;1.70;99.90
10042;DHT22;5061;49.068;12.058;2023-03-17T00:03:34;1.70;99.90
10042;DHT22;5061;49.068;12.058;2023-03-17T00:06:56;1.70;99.90
10042;DHT22;5061;49.068;12.058;2023-03-17T00:10:23;1.70;99.90
10042;DHT22;5061;49.068;12.058;2023-03-17T00:13:44;1.70;99.90
10042;DHT22;5061;49.068;12.058;2023-03-17T00:17:05;1.70;99.90
10042;DHT22;5061;49.068;12.058;2023-03-17T00:20:30;1.70;99.90
10042;DHT22;5061;49.068;12.058;2023-03-17T00:23:52;1.70;99.90
10042;DHT22;5061;49.068;12.058;2023-03-17T00:27:14;1.70;99.90
10042;DHT22;5061;49.068;12.058;2023-03-17T00:30:34;1.70;99.90
10042;DHT22;5061;49.068;12.058;2023-03-17T00:33:56;1.70;99.90
10042;DHT22;5061;49.068;12.058;2023-03-17T00:37:17;1.70;99.90
10042;DHT22;5061;49.068;12.058;2023-03-17T00:40:39;1.70;99.90
10042;DHT22;5061;49.068;12.058;2023-03-17T00:43:59;1.70;99.90
10042;DHT22;5061;49.068;12.058;2023-03-17T00:47:21;1.70;99.90
10042;DHT22;5061;49.068;12.058;2023-03-17T00:50:42;1.70;99.90
10042;DHT22;5061;49.068;12.058;2023-03-17T00:54:04;1.60;99.90
10042;DHT22;5061;49.068;12.058;2023-03-17T00:57:24;1.60;99.90
10042;DHT22;5061;49.068;12.058;2023-03-17T01:00:45;1.60;99.90
10042;DHT22;5061;49.068;12.058;2023-03-17T01:04:08;1.60;99.90
10042;DHT22;5061;49.068;12.058;2023-03-17T01:07:30;1.60;99.90
10042;DHT22;5061;49.068;12.058;2023-03-17T01:10:51;1.60;99.90
10042;DHT22;5061;49.068;12.058;2023-03-17T01:14:12;1.50;99.90
10042;DHT22;5061;49.068;12.058;2023-03-17T01:17:32;1.50;99.90
10042;DHT22;5061;49.068;12.058;2023-03-17T01:20:53;1.50;99.90
10042;DHT22;5061;49.068;12.058;2023-03-17T01:24:14;1.50;99.90
10042;DHT22;5061;49.068;12.058;2023-03-17T01:27:34;1.50;99.90
10042;DHT22;5061;49.068;12.058;2023-03-17T01:30:55;1.40;99.90
10042;DHT22;5061;49.068;12.058;2023-03-17T01:34:17;1.40;99.90
10042;DHT22;5061;49.068;12.058;2023-03-17T01:37:38;1.40;99.90
10042;DHT22;5061;49.068;12.058;2023-03-17T01:40:59;1.40;99.90
10042;DHT22;5061;49.068;12.058;2023-03-17T01:44:20;1.40;99.90
10042;DHT22;5061;49.068;12.058;2023-03-17T01:47:41;1.40;99.90
10042;DHT22;5061;49.068;12.058;2023-03-17T01:51:02;1.40;99.90
10042;DHT22;5061;49.068;12.058;2023-03-17T01:54:34;1.40;99.90
10042;DHT22;5061;49.068;12.058;2023-03-17T01:57:57;1.40;99.90
10042;DHT22;5061;49.068;12.058;2023-03-17T02:01:24;1.30;99.90
10042;DHT22;5061;49.068;12.058;2023-03-17T02:04:47;1.30;99.90
10042;DHT22;5061;49.068;12.058;2023-03-17T02:08:13;1.30;99.90
10042;DHT22;5061;49.068;12.058;2023-03-17T02:11:34;1.30;99.90
10042;DHT22;5061;49.068;12.058;2023-03-17T02:14:56;1.30;99.90
10042;DHT22;5061;49.068;12.058;2023-03-17T02:18:20;1.30;99.90
10042;DHT22;5061;49.068;12.058;2023-03-17T02:21:53;1.30;99.90
10042;DHT22;5061;49.068;12.058;2023-03-17T02:25:15;1.30;99.90
10042;DHT22;5061;49.068;12.058;2023-03-17T02:28:36;1.30;99.90
10042;DHT22;5061;49.068;12.058;2023-03-17T02:31:57;1.30;99.90
10042;DHT22;5061;49.068;12.058;2023-03-17T02:35:18;1.30;99.90
10042;DHT22;5061;49.068;12.058;2023-03-17T02:38:39;1.30;99.90
10042;DHT22;5061;49.068;12.058;2023-03-17T02:42:00;1.20;99.90
10042;DHT22;5061;49.068;12.058;2023-03-17T02:45:21;1.20;99.90
10042;DHT22;5061;49.068;12.058;2023-03-17T02:48:42;1.20;99.90
10042;DHT22;5061;49.068;12.058;2023-03-17T02:52:04;1.20;99.90
10042;DHT22;5061;49.068;12.058;2023-03-17T02:55:24;1.20;99.90
10042;DHT22;5061;49.068;12.058;2023-03-17T02:58:46;1.10;99.90
10042;DHT22;5061;49.068;12.058;2023-03-17T03:02:07;1.10;99.90
10042;DHT22;5061;49.068;12.058;2023-03-17T03:05:27;1.10;99.90
10042;DHT22;5061;49.068;12.058;2023-03-17T03:08:49;1.00;99.90
10042;DHT22;5061;49.068;12.058;2023-03-17T03:12:10;1.00;99.90
10042;DHT22;5061;49.068;12.058;2023-03-17T03:15:30;1.00;99.90
10042;DHT22;5061;49.068;12.058;2023-03-17T03:18:51;1.00;99.90
10042;DHT22;5061;49.068;12.058;2023-03-17T03:22:11;1.00;99.90
10042;DHT22;5061;49.068;12.058;2023-03-17T03:25:34;0.90;99.90
10042;DHT22;5061;49.068;12.058;2023-03-17T03:28:57;0.90;99.90
10042;DHT22;5061;49.068;12.058;2023-03-17T03:32:19;0.90;99.90
10042;DHT22;5061;49.068;12.058;2023-03-17T03:35:40;0.90;99.90
10042;DHT22;5061;49.068;12.058;2023-03-17T03:39:00;0.90;99.90
10042;DHT22;5061;49.068;12.058;2023-03-17T03:42:21;0.90;99.90
10042;DHT22;5061;49.068;12.058;2023-03-17T03:45:42;0.90;99.90
10042;DHT22;5061;49.068;12.058;2023-03-17T03:49:02;0.90;99.90
10042;DHT22;5061;49.068;12.058;2023-03-17T03:52:23;0.90;99.90
10042;DHT22;5061;49.068;12.058;2023-03-17T03:55:43;0.90;99.90
10042;DHT22;5061;49.068;12.058;2023-03-17T03:59:04;0.90;99.90
10042;DHT22;5061;49.068;12.058;2023-03-17T04:02:25;0.90;99.90
10042;DHT22;5061;49.068;12.058;2023-03-17T04:05:46;0.90;99.90
10042;DHT22;5061;49.068;12.058;2023-03-17T04:09:06;0.90;99.90
10042;DHT22;5061;49.068;12.058;2023-03-17T04:12:28;0.90;99.90
10042;DHT22;5061;49.068;12.058;2023-03-17T04:15:49;0.90;99.90
10042;DHT22;5061;49.068;12.058;2023-03-17T04:19:09;0.90;99.90
10042;DHT22;5061;49.068;12.058;2023-03-17T04:22:30;0.90;99.90
10042;DHT22;5061;49.068;12.058;2023-03-17T04:25:51;0.90;99.90
10042;DHT22;5061;49.068;12.058;2023-03-17T04:29:12;0.90;99.90
10042;DHT22;5061;49.068;12.058;2023-03-17T04:32:35;0.90;99.90
10042;DHT22;5061;49.068;12.058;2023-03-17T04:35:55;0.80;99.90
10042;DHT22;5061;49.068;12.058;2023-03-17T04:39:16;0.80;99.90
10042;DHT22;5061;49.068;12.058;2023-03-17T04:42:38;0.80;99.90
10042;DHT22;5061;49.068;12.058;2023-03-17T04:45:58;0.80;99.90
10042;DHT22;5061;49.068;12.058;2023-03-17T04:49:19;0.80;99.90
10042;DHT22;5061;49.068;12.058;2023-03-17T04:52:40;0.80;99.90
10042;DHT22;5061;49.068;12.058;2023-03-17T04:56:01;0.90;99.90
10042;DHT22;5061;49.068;12.058;2023-03-17T04:59:22;0.90;99.90
10042;DHT22;5061;49.068;12.058;2023-03-17T05:02:42;0.90;99.90
10042;DHT22;5061;49.068;12.058;2023-03-17T05:06:03;0.90;99.90
10042;DHT22;5061;49.068;12.058;2023-03-17T05:09:25;0.90;99.90
10042;DHT22;5061;49.068;12.058;2023-03-17T05:12:47;1.00;99.90
10042;DHT22;5061;49.068;12.058;2023-03-17T05:16:08;1.00;99.90
10042;DHT22;5061;49.068;12.058;2023-03-17T05:19:29;1.00;99.90
10042;DHT22;5061;49.068;12.058;2023-03-17T05:22:50;1.00;99.90
10042;DHT22;5061;49.068;12.058;2023-03-17T05:26:11;1.00;99.90
10042;DHT22;5061;49.068;12.058;2023-03-17T05:29:32;1.00;99.90
10042;DHT22;5061;49.068;12.058;2023-03-17T05:32:53;1.00;99.90
10042;DHT22;5061;49.068;12.058;2023-03-17T05:36:14;0.90;99.90
10042;DHT22;5061;49.068;12.058;2023-03-17T05:39:35;0.90;99.90
10042;DHT22;5061;49.068;12.058;2023-03-17T05:42:55;0.90;99.90
10042;DHT22;5061;49.068;12.058;2023-03-17T05:46:16;0.90;99.90
10042;DHT22;5061;49.068;12.058;2023-03-17T05:49:37;0.90;99.90
10042;DHT22;5061;49.068;12.058;2023-03-17T05:52:57;0.90;99.90
10042;DHT22;5061;49.068;12.058;2023-03-17T05:56:18;0.90;99.90
10042;DHT22;5061;49.068;12.058;2023-03-17T05:59:39;0.90;99.90
10042;DHT22;5061;49.068;12.058;2023-03-17T06:02:59;0.90;99.90
10042;DHT22;5061;49.068;12.058;2023-03-17T06:06:22;1.00;99.90
10042;DHT22;5061;49.068;12.058;2023-03-17T06:09:43;1.00;99.90
10042;DHT22;5061;49.068;12.058;2023-03-17T06:13:04;1.00;99.90
10042;DHT22;5061;49.068;12.058;2023-03-17T06:16:25;1.00;99.90
10042;DHT22;5061;49.068;12.058;2023-03-17T06:19:48;1.00;99.90
10042;DHT22;5061;49.068;12.058;2023-03-17T06:23:08;1.10;99.90
10042;DHT22;5061;49.068;12.058;2023-03-17T06:26:29;1.10;99.90
10042;DHT22;5061;49.068;12.058;2023-03-17T06:29:50;1.10;99.90
10042;DHT22;5061;49.068;12.058;2023-03-17T06:33:10;1.10;99.90
10042;DHT22;5061;49.068;12.058;2023-03-17T06:36:32;1.10;99.90
10042;DHT22;5061;49.068;12.058;2023-03-17T06:39:53;1.10;99.90
10042;DHT22;5061;49.068;12.058;2023-03-17T06:43:13;1.10;99.90
10042;DHT22;5061;49.068;12.058;2023-03-17T06:46:34;1.20;99.90
10042;DHT22;5061;49.068;12.058;2023-03-17T06:49:56;1.20;99.90
10042;DHT22;5061;49.068;12.058;2023-03-17T06:53:16;1.20;99.90
10042;DHT22;5061;49.068;12.058;2023-03-17T06:56:37;1.20;99.90
10042;DHT22;5061;49.068;12.058;2023-03-17T06:59:57;1.30;99.90
10042;DHT22;5061;49.068;12.058;2023-03-17T07:03:19;1.30;99.90
10042;DHT22;5061;49.068;12.058;2023-03-17T07:06:41;1.40;99.90
10042;DHT22;5061;49.068;12.058;2023-03-17T07:10:02;1.40;99.90
10042;DHT22;5061;49.068;12.058;2023-03-17T07:13:23;1.50;99.90
10042;DHT22;5061;49.068;12.058;2023-03-17T07:16:45;1.60;99.90
10042;DHT22;5061;49.068;12.058;2023-03-17T07:20:08;1.60;99.90
10042;DHT22;5061;49.068;12.058;2023-03-17T07:23:30;1.70;99.90
10042;DHT22;5061;49.068;12.058;2023-03-17T07:26:50;1.80;99.90
10042;DHT22;5061;49.068;12.058;2023-03-17T07:30:12;1.90;99.90
10042;DHT22;5061;49.068;12.058;2023-03-17T07:33:34;1.90;99.90
10042;DHT22;5061;49.068;12.058;2023-03-17T07:36:54;2.00;99.90
10042;DHT22;5061;49.068;12.058;2023-03-17T07:40:16;2.00;99.90
10042;DHT22;5061;49.068;12.058;2023-03-17T07:43:37;2.10;99.90
10042;DHT22;5061;49.068;12.058;2023-03-17T07:46:58;2.20;99.90
10042;DHT22;5061;49.068;12.058;2023-03-17T07:50:19;2.20;99.90
10042;DHT22;5061;49.068;12.058;2023-03-17T07:53:40;2.30;99.90
10042;DHT22;5061;49.068;12.058;2023-03-17T07:57:01;2.40;99.90
10042;DHT22;5061;49.068;12.058;2023-03-17T08:00:22;2.40;99.90
10042;DHT22;5061;49.068;12.058;2023-03-17T08:03:43;2.50;99.90
10042;DHT22;5061;49.068;12.058;2023-03-17T08:07:03;2.60;99.90
10042;DHT22;5061;49.068;12.058;2023-03-17T08:10:25;2.70;99.90
10042;DHT22;5061;49.068;12.058;2023-03-17T08:13:46;2.70;99.90
10042;DHT22;5061;49.068;12.058;2023-03-17T08:17:07;2.80;99.90
10042;DHT22;5061;49.068;12.058;2023-03-17T08:20:28;2.80;99.90
10042;DHT22;5061;49.068;12.058;2023-03-17T08:23:49;2.90;99.90
10042;DHT22;5061;49.068;12.058;2023-03-17T08:27:09;3.00;99.90
10042;DHT22;5061;49.068;12.058;2023-03-17T08:30:30;3.00;99.90
10042;DHT22;5061;49.068;12.058;2023-03-17T08:33:52;3.20;99.90
10042;DHT22;5061;49.068;12.058;2023-03-17T08:37:13;3.30;99.90
10042;DHT22;5061;49.068;12.058;2023-03-17T08:40:34;3.40;99.90
10042;DHT22;5061;49.068;12.058;2023-03-17T08:43:56;3.50;99.90
10042;DHT22;5061;49.068;12.058;2023-03-17T08:47:17;3.60;99.90
10042;DHT22;5061;49.068;12.058;2023-03-17T08:50:38;3.60;99.90
10042;DHT22;5061;49.068;12.058;2023-03-17T08:53:59;3.70;99.90
10042;DHT22;5061;49.068;12.058;2023-03-17T08:57:20;3.80;99.90
10042;DHT22;5061;49.068;12.058;2023-03-17T09:00:42;3.90;99.90
10042;DHT22;5061;49.068;12.058;2023-03-17T09:04:02;4.00;99.90
10042;DHT22;5061;49.068;12.058;2023-03-17T09:07:23;4.10;99.90
10042;DHT22;5061;49.068;12.058;2023-03-17T09:10:44;4.20;99.90
10042;DHT22;5061;49.068;12.058;2023-03-17T09:14:04;4.30;99.90
10042;DHT22;5061;49.068;12.058;2023-03-17T09:17:25;4.40;99.90
10042;DHT22;5061;49.068;12.058;2023-03-17T09:20:46;4.50;99.90
10042;DHT22;5061;49.068;12.058;2023-03-17T09:24:07;4.60;99.90
10042;DHT22;5061;49.068;12.058;2023-03-17T09:27:28;4.70;99.90
10042;DHT22;5061;49.068;12.058;2023-03-17T09:30:48;4.90;99.90
10042;DHT22;5061;49.068;12.058;2023-03-17T09:34:10;5.00;99.90
10042;DHT22;5061;49.068;12.058;2023-03-17T09:37:31;5.20;99.90
10042;DHT22;5061;49.068;12.058;2023-03-17T09:40:59;5.30;99.90
10042;DHT22;5061;49.068;12.058;2023-03-17T09:51:48;5.70;99.90
10042;DHT22;5061;49.068;12.058;2023-03-17T09:55:16;5.80;99.90
10042;DHT22;5061;49.068;12.058;2023-03-17T09:58:44;5.90;99.90
10042;DHT22;5061;49.068;12.058;2023-03-17T10:02:22;6.00;99.90
10042;DHT22;5061;49.068;12.058;2023-03-17T10:05:44;6.10;99.90
10042;DHT22;5061;49.068;12.058;2023-03-17T10:09:22;6.20;99.90
10042;DHT22;5061;49.068;12.058;2023-03-17T10:13:01;6.30;99.90
10042;DHT22;5061;49.068;12.058;2023-03-17T10:20:29;6.50;99.90
10042;DHT22;5061;49.068;12.058;2023-03-17T10:23:52;6.60;99.90
10042;DHT22;5061;49.068;12.058;2023-03-17T10:27:14;6.70;99.90
10042;DHT22;5061;49.068;12.058;2023-03-17T10:30:35;6.70;99.90
10042;DHT22;5061;49.068;12.058;2023-03-17T10:33:57;6.80;99.90
10042;DHT22;5061;49.068;12.058;2023-03-17T10:37:23;6.90;99.90
10042;DHT22;5061;49.068;12.058;2023-03-17T10:40:47;7.00;99.90
10042;DHT22;5061;49.068;12.058;2023-03-17T10:44:22;7.00;99.90
10042;DHT22;5061;49.068;12.058;2023-03-17T10:47:48;7.10;99.90
10042;DHT22;5061;49.068;12.058;2023-03-17T10:51:09;7.20;99.90
10042;DHT22;5061;49.068;12.058;2023-03-17T10:54:34;7.40;99.90
10042;DHT22;5061;49.068;12.058;2023-03-17T10:58:04;7.50;99.90
10042;DHT22;5061;49.068;12.058;2023-03-17T11:01:37;7.60;99.90
10042;DHT22;5061;49.068;12.058;2023-03-17T11:05:03;7.60;99.90
10042;DHT22;5061;49.068;12.058;2023-03-17T11:08:24;7.60;99.90
10042;DHT22;5061;49.068;12.058;2023-03-17T11:12:06;7.70;99.90
10042;DHT22;5061;49.068;12.058;2023-03-17T11:15:34;7.70;99.90
10042;DHT22;5061;49.068;12.058;2023-03-17T11:18:57;7.80;99.90
10042;DHT22;5061;49.068;12.058;2023-03-17T11:22:39;7.90;99.90
10042;DHT22;5061;49.068;12.058;2023-03-17T11:26:30;7.90;99.90
10042;DHT22;5061;49.068;12.058;2023-03-17T11:41:29;8.10;99.90
10042;DHT22;5061;49.068;12.058;2023-03-17T11:45:16;8.20;99.90
10042;DHT22;5061;49.068;12.058;2023-03-17T11:52:29;8.40;99.90
10042;DHT22;5061;49.068;12.058;2023-03-17T11:56:49;8.40;99.90
10042;DHT22;5061;49.068;12.058;2023-03-17T12:00:31;8.50;99.90
10042;DHT22;5061;49.068;12.058;2023-03-17T12:04:15;8.60;99.90
10042;DHT22;5061;49.068;12.058;2023-03-17T12:07:52;8.70;99.90
10042;DHT22;5061;49.068;12.058;2023-03-17T12:11:22;8.80;99.90
10042;DHT22;5061;49.068;12.058;2023-03-17T12:14:47;9.00;99.90
10042;DHT22;5061;49.068;12.058;2023-03-17T12:18:41;9.20;99.90
10042;DHT22;5061;49.068;12.058;2023-03-17T12:22:12;9.30;99.90
10042;DHT22;5061;49.068;12.058;2023-03-17T12:29:43;9.70;99.90
10042;DHT22;5061;49.068;12.058;2023-03-17T12:33:47;9.80;99.90
10042;DHT22;5061;49.068;12.058;2023-03-17T12:37:09;10.10;99.90
10042;DHT22;5061;49.068;12.058;2023-03-17T12:40:48;10.30;99.90
10042;DHT22;5061;49.068;12.058;2023-03-17T12:51:33;10.80;99.90
10042;DHT22;5061;49.068;12.058;2023-03-17T12:55:00;11.10;99.90
10042;DHT22;5061;49.068;12.058;2023-03-17T12:58:29;11.40;99.90
10042;DHT22;5061;49.068;12.058;2023-03-17T13:01:56;11.70;99.90
10042;DHT22;5061;49.068;12.058;2023-03-17T13:05:29;11.90;99.90
10042;DHT22;5061;49.068;12.058;2023-03-17T13:08:52;12.20;99.90
10042;DHT22;5061;49.068;12.058;2023-03-17T13:16:06;12.40;99.90
10042;DHT22;5061;49.068;12.058;2023-03-17T13:23:52;12.80;99.90
10042;DHT22;5061;49.068;12.058;2023-03-17T13:31:15;13.20;99.90
10042;DHT22;5061;49.068;12.058;2023-03-17T13:34:54;13.30;99.90
10042;DHT22;5061;49.068;12.058;2023-03-17T13:42:51;13.50;99.90
10042;DHT22;5061;49.068;12.058;2023-03-17T13:50:05;13.70;99.90
10042;DHT22;5061;49.068;12.058;2023-03-17T13:53:29;13.80;99.90
10042;DHT22;5061;49.068;12.058;2023-03-17T13:56:51;14.00;99.90
10042;DHT22;5061;49.068;12.058;2023-03-17T14:00:26;14.20;99.90
10042;DHT22;5061;49.068;12.058;2023-03-17T14:03:49;14.50;99.90
10042;DHT22;5061;49.068;12.058;2023-03-17T14:07:15;14.70;99.90
10042;DHT22;5061;49.068;12.058;2023-03-17T14:10:37;14.80;99.90
10042;DHT22;5061;49.068;12.058;2023-03-17T14:17:25;14.80;99.90
10042;DHT22;5061;49.068;12.058;2023-03-17T14:20:55;14.70;99.90
10042;DHT22;5061;49.068;12.058;2023-03-17T14:24:21;14.70;99.90
10042;DHT22;5061;49.068;12.058;2023-03-17T14:27:43;14.60;99.90
10042;DHT22;5061;49.068;12.058;2023-03-17T14:31:14;14.60;99.90
10042;DHT22;5061;49.068;12.058;2023-03-17T14:34:44;14.60;99.90
10042;DHT22;5061;49.068;12.058;2023-03-17T14:38:29;14.50;99.90
10042;DHT22;5061;49.068;12.058;2023-03-17T14:42:03;14.50;99.90
10042;DHT22;5061;49.068;12.058;2023-03-17T14:45:37;14.40;99.90
10042;DHT22;5061;49.068;12.058;2023-03-17T14:49:01;14.40;99.90
10042;DHT22;5061;49.068;12.058;2023-03-17T14:52:27;14.30;99.90
10042;DHT22;5061;49.068;12.058;2023-03-17T14:55:52;14.20;99.90
10042;DHT22;5061;49.068;12.058;2023-03-17T14:59:29;14.10;99.90
10042;DHT22;5061;49.068;12.058;2023-03-17T15:02:55;14.10;99.90
10042;DHT22;5061;49.068;12.058;2023-03-17T15:09:42;13.90;99.90
10042;DHT22;5061;49.068;12.058;2023-03-17T15:13:05;13.80;99.90
10042;DHT22;5061;49.068;12.058;2023-03-17T15:16:28;13.80;99.90
10042;DHT22;5061;49.068;12.058;2023-03-17T15:19:51;13.70;99.90
10042;DHT22;5061;49.068;12.058;2023-03-17T15:26:56;13.70;99.90
10042;DHT22;5061;49.068;12.058;2023-03-17T15:30:20;13.60;99.90
10042;DHT22;5061;49.068;12.058;2023-03-17T15:33:51;13.60;99.90
10042;DHT22;5061;49.068;12.058;2023-03-17T15:37:28;13.60;99.90
10042;DHT22;5061;49.068;12.058;2023-03-17T15:40:50;13.60;99.90
10042;DHT22;5061;49.068;12.058;2023-03-17T15:44:11;13.60;99.90
10042;DHT22;5061;49.068;12.058;2023-03-17T15:47:34;13.70;99.90
10042;DHT22;5061;49.068;12.058;2023-03-17T15:50:59;13.70;99.90
10042;DHT22;5061;49.068;12.058;2023-03-17T15:54:20;13.70;99.90
10042;DHT22;5061;49.068;12.058;2023-03-17T15:57:41;13.70;99.90
10042;DHT22;5061;49.068;12.058;2023-03-17T16:01:02;13.70;99.90
10042;DHT22;5061;49.068;12.058;2023-03-17T16:04:23;13.60;99.90
10042;DHT22;5061;49.068;12.058;2023-03-17T16:07:47;13.60;99.90
10042;DHT22;5061;49.068;12.058;2023-03-17T16:11:13;13.50;99.90
10042;DHT22;5061;49.068;12.058;2023-03-17T16:14:34;13.50;99.90
10042;DHT22;5061;49.068;12.058;2023-03-17T16:18:01;13.50;99.90
10042;DHT22;5061;49.068;12.058;2023-03-17T16:21:23;13.50;99.90
10042;DHT22;5061;49.068;12.058;2023-03-17T16:24:45;13.40;99.90
10042;DHT22;5061;49.068;12.058;2023-03-17T16:28:21;13.40;99.90
10042;DHT22;5061;49.068;12.058;2023-03-17T16:31:45;13.40;99.90
10042;DHT22;5061;49.068;12.058;2023-03-17T16:35:20;13.30;99.90
10042;DHT22;5061;49.068;12.058;2023-03-17T16:38:41;13.20;99.90
10042;DHT22;5061;49.068;12.058;2023-03-17T16:42:02;13.10;99.90
10042;DHT22;5061;49.068;12.058;2023-03-17T16:45:28;13.00;99.90
10042;DHT22;5061;49.068;12.058;2023-03-17T16:48:52;12.90;99.90
10042;DHT22;5061;49.068;12.058;2023-03-17T16:52:12;12.80;99.90
10042;DHT22;5061;49.068;12.058;2023-03-17T16:55:34;12.70;99.90
10042;DHT22;5061;49.068;12.058;2023-03-17T16:58:55;12.60;99.90
10042;DHT22;5061;49.068;12.058;2023-03-17T17:02:16;12.50;99.90
10042;DHT22;5061;49.068;12.058;2023-03-17T17:05:37;12.30;99.90
10042;DHT22;5061;49.068;12.058;2023-03-17T17:08:58;12.10;99.90
10042;DHT22;5061;49.068;12.058;2023-03-17T17:12:18;12.00;99.90
10042;DHT22;5061;49.068;12.058;2023-03-17T17:15:39;11.90;99.90
10042;DHT22;5061;49.068;12.058;2023-03-17T17:19:02;11.70;99.90
10042;DHT22;5061;49.068;12.058;2023-03-17T17:22:23;11.50;99.90
10042;DHT22;5061;49.068;12.058;2023-03-17T17:25:44;11.40;99.90
10042;DHT22;5061;49.068;12.058;2023-03-17T17:29:06;11.30;99.90
10042;DHT22;5061;49.068;12.058;2023-03-17T17:32:26;11.10;99.90
10042;DHT22;5061;49.068;12.058;2023-03-17T17:35:48;10.90;99.90
10042;DHT22;5061;49.068;12.058;2023-03-17T17:39:13;10.80;99.90
10042;DHT22;5061;49.068;12.058;2023-03-17T17:42:34;10.60;99.90
10042;DHT22;5061;49.068;12.058;2023-03-17T17:45:58;10.50;99.90
10042;DHT22;5061;49.068;12.058;2023-03-17T17:49:18;10.40;99.90
10042;DHT22;5061;49.068;12.058;2023-03-17T17:52:40;10.30;99.90
10042;DHT22;5061;49.068;12.058;2023-03-17T17:56:01;10.20;99.90
10042;DHT22;5061;49.068;12.058;2023-03-17T17:59:22;10.00;99.90
10042;DHT22;5061;49.068;12.058;2023-03-17T18:02:43;9.90;99.90
10042;DHT22;5061;49.068;12.058;2023-03-17T18:06:04;9.80;99.90
10042;DHT22;5061;49.068;12.058;2023-03-17T18:09:25;9.60;99.90
10042;DHT22;5061;49.068;12.058;2023-03-17T18:12:47;9.50;99.90
10042;DHT22;5061;49.068;12.058;2023-03-17T18:16:11;9.40;99.90
10042;DHT22;5061;49.068;12.058;2023-03-17T18:19:34;9.30;99.90
10042;DHT22;5061;49.068;12.058;2023-03-17T18:22:55;9.20;99.90
10042;DHT22;5061;49.068;12.058;2023-03-17T18:26:19;9.20;99.90
10042;DHT22;5061;49.068;12.058;2023-03-17T18:29:41;9.10;99.90
10042;DHT22;5061;49.068;12.058;2023-03-17T18:33:09;9.00;99.90
10042;DHT22;5061;49.068;12.058;2023-03-17T18:36:32;8.90;99.90
10042;DHT22;5061;49.068;12.058;2023-03-17T18:39:54;8.80;99.90
10042;DHT22;5061;49.068;12.058;2023-03-17T18:43:15;8.80;99.90
10042;DHT22;5061;49.068;12.058;2023-03-17T18:46:36;8.70;99.90
10042;DHT22;5061;49.068;12.058;2023-03-17T18:49:57;8.70;99.90
10042;DHT22;5061;49.068;12.058;2023-03-17T18:53:19;8.60;99.90
10042;DHT22;5061;49.068;12.058;2023-03-17T18:56:39;8.60;99.90
10042;DHT22;5061;49.068;12.058;2023-03-17T19:00:00;8.50;99.90
10042;DHT22;5061;49.068;12.058;2023-03-17T19:03:21;8.40;99.90
10042;DHT22;5061;49.068;12.058;2023-03-17T19:06:41;8.40;99.90
10042;DHT22;5061;49.068;12.058;2023-03-17T19:10:03;8.30;99.90
10042;DHT22;5061;49.068;12.058;2023-03-17T19:13:23;8.20;99.90
10042;DHT22;5061;49.068;12.058;2023-03-17T19:16:45;8.20;99.90
10042;DHT22;5061;49.068;12.058;2023-03-17T19:20:07;8.10;99.90
10042;DHT22;5061;49.068;12.058;2023-03-17T19:23:30;8.10;99.90
10042;DHT22;5061;49.068;12.058;2023-03-17T19:26:52;8.00;99.90
10042;DHT22;5061;49.068;12.058;2023-03-17T19:30:13;8.00;99.90
10042;DHT22;5061;49.068;12.058;2023-03-17T19:33:34;7.90;99.90
10042;DHT22;5061;49.068;12.058;2023-03-17T19:36:55;7.90;99.90
10042;DHT22;5061;49.068;12.058;2023-03-17T19:40:16;7.80;99.90
10042;DHT22;5061;49.068;12.058;2023-03-17T19:43:37;7.70;99.90
10042;DHT22;5061;49.068;12.058;2023-03-17T19:46:58;7.70;99.90
10042;DHT22;5061;49.068;12.058;2023-03-17T19:50:21;7.60;99.90
10042;DHT22;5061;49.068;12.058;2023-03-17T19:53:41;7.50;99.90
10042;DHT22;5061;49.068;12.058;2023-03-17T19:57:02;7.50;99.90
10042;DHT22;5061;49.068;12.058;2023-03-17T20:00:23;7.40;99.90
10042;DHT22;5061;49.068;12.058;2023-03-17T20:03:44;7.40;99.90
10042;DHT22;5061;49.068;12.058;2023-03-17T20:07:05;7.30;99.90
10042;DHT22;5061;49.068;12.058;2023-03-17T20:10:26;7.20;99.90
10042;DHT22;5061;49.068;12.058;2023-03-17T20:13:47;7.10;99.90
10042;DHT22;5061;49.068;12.058;2023-03-17T20:17:07;7.10;99.90
10042;DHT22;5061;49.068;12.058;2023-03-17T20:20:28;7.00;99.90
10042;DHT22;5061;49.068;12.058;2023-03-17T20:23:48;7.00;99.90
10042;DHT22;5061;49.068;12.058;2023-03-17T20:27:09;6.90;99.90
10042;DHT22;5061;49.068;12.058;2023-03-17T20:30:34;6.90;99.90
10042;DHT22;5061;49.068;12.058;2023-03-17T20:33:56;6.80;99.90
10042;DHT22;5061;49.068;12.058;2023-03-17T20:37:17;6.80;99.90
10042;DHT22;5061;49.068;12.058;2023-03-17T20:40:44;6.80;99.90
10042;DHT22;5061;49.068;12.058;2023-03-17T20:44:05;6.70;99.90
10042;DHT22;5061;49.068;12.058;2023-03-17T20:47:31;6.70;99.90
10042;DHT22;5061;49.068;12.058;2023-03-17T20:50:52;6.60;99.90
10042;DHT22;5061;49.068;12.058;2023-03-17T20:54:13;6.60;99.90
10042;DHT22;5061;49.068;12.058;2023-03-17T20:57:34;6.60;99.90
10042;DHT22;5061;49.068;12.058;2023-03-17T21:00:55;6.50;99.90
10042;DHT22;5061;49.068;12.058;2023-03-17T21:04:17;6.40;99.90
10042;DHT22;5061;49.068;12.058;2023-03-17T21:07:40;6.40;99.90
10042;DHT22;5061;49.068;12.058;2023-03-17T21:11:01;6.40;99.90
10042;DHT22;5061;49.068;12.058;2023-03-17T21:14:22;6.30;99.90
10042;DHT22;5061;49.068;12.058;2023-03-17T21:17:43;6.20;99.90
10042;DHT22;5061;49.068;12.058;2023-03-17T21:21:03;6.20;99.90
10042;DHT22;5061;49.068;12.058;2023-03-17T21:24:27;6.20;99.90
10042;DHT22;5061;49.068;12.058;2023-03-17T21:27:50;6.10;99.90
10042;DHT22;5061;49.068;12.058;2023-03-17T21:31:12;6.10;99.90
10042;DHT22;5061;49.068;12.058;2023-03-17T21:34:34;6.10;99.90
10042;DHT22;5061;49.068;12.058;2023-03-17T21:37:56;6.00;99.90
10042;DHT22;5061;49.068;12.058;2023-03-17T21:41:31;6.00;99.90
10042;DHT22;5061;49.068;12.058;2023-03-17T21:44:52;5.90;99.90
10042;DHT22;5061;49.068;12.058;2023-03-17T21:48:13;5.90;99.90
10042;DHT22;5061;49.068;12.058;2023-03-17T21:51:33;5.80;99.90
10042;DHT22;5061;49.068;12.058;2023-03-17T21:54:54;5.80;99.90
10042;DHT22;5061;49.068;12.058;2023-03-17T21:58:15;5.80;99.90
10042;DHT22;5061;49.068;12.058;2023-03-17T22:01:37;5.70;99.90
10042;DHT22;5061;49.068;12.058;2023-03-17T22:04:58;5.70;99.90
10042;DHT22;5061;49.068;12.058;2023-03-17T22:08:19;5.70;99.90
10042;DHT22;5061;49.068;12.058;2023-03-17T22:11:39;5.70;99.90
10042;DHT22;5061;49.068;12.058;2023-03-17T22:15:00;5.70;99.90
10042;DHT22;5061;49.068;12.058;2023-03-17T22:18:21;5.70;99.90
10042;DHT22;5061;49.068;12.058;2023-03-17T22:21:41;5.70;99.90
10042;DHT22;5061;49.068;12.058;2023-03-17T22:25:03;5.60;99.90
10042;DHT22;5061;49.068;12.058;2023-03-17T22:28:25;5.70;99.90
10042;DHT22;5061;49.068;12.058;2023-03-17T22:31:46;5.60;99.90
10042;DHT22;5061;49.068;12.058;2023-03-17T22:35:06;5.60;99.90
10042;DHT22;5061;49.068;12.058;2023-03-17T22:38:27;5.60;99.90
10042;DHT22;5061;49.068;12.058;2023-03-17T22:41:48;5.50;99.90
10042;DHT22;5061;49.068;12.058;2023-03-17T22:45:09;5.50;99.90
10042;DHT22;5061;49.068;12.058;2023-03-17T22:48:31;5.40;99.90